West River, Maryland
Current Conditions -  °F | °C
As of 10:18 AM on Wednesday 22 Oct 2014 (Local Time) from KNAK Reporting Station
Light Rain Light Rain  
Wind Chill: 56°   Ceiling: 2000
Heat Index: 56°   Visibility: 3mi
Dew Point: 53°   Wind: 14mph
Humidity: 90%   Direction: 350°N
Pressure: 29.89"   Gusts: NA
Location:  38.85°N, 76.6°W
Report Text: KNAK 221418Z AUTO 35012KT 3SM -RA BR SCT013 BKN020 OVC025 13/12 A2989 RMK AO2 P0004 T01330117
Loading
Personal Weather Stations






























Interactive Weather Map
Tropical Storm Tracking
New forecast layout! Learn more

10-Day Weather Forecast

Advertisements
Track Severe Weather on mobile